sensor_id;sensor_type;location;lat;lon;timestamp;P1;durP1;ratioP1;P2;durP2;ratioP2
17145;SDS011;8688;54.444;18.444;2024-03-08T00:01:43;62.63;;;25.83;;
17145;SDS011;8688;54.444;18.444;2024-03-08T00:04:12;61.07;;;24.93;;
17145;SDS011;8688;54.444;18.444;2024-03-08T00:06:41;53.87;;;24.57;;
17145;SDS011;8688;54.444;18.444;2024-03-08T00:09:11;49.30;;;21.83;;
17145;SDS011;8688;54.444;18.444;2024-03-08T00:11:39;50.90;;;21.27;;
17145;SDS011;8688;54.444;18.444;2024-03-08T00:14:08;58.70;;;22.90;;
17145;SDS011;8688;54.444;18.444;2024-03-08T00:16:35;46.50;;;18.40;;
17145;SDS011;8688;54.444;18.444;2024-03-08T00:19:03;51.53;;;20.77;;
17145;SDS011;8688;54.444;18.444;2024-03-08T00:21:31;51.37;;;19.73;;
17145;SDS011;8688;54.444;18.444;2024-03-08T00:23:58;43.60;;;18.93;;
17145;SDS011;8688;54.444;18.444;2024-03-08T00:26:26;48.60;;;19.13;;
17145;SDS011;8688;54.444;18.444;2024-03-08T00:28:54;46.10;;;17.27;;
17145;SDS011;8688;54.444;18.444;2024-03-08T00:31:22;39.10;;;17.40;;
17145;SDS011;8688;54.444;18.444;2024-03-08T00:33:50;39.73;;;16.77;;
17145;SDS011;8688;54.444;18.444;2024-03-08T00:36:17;42.77;;;18.57;;
17145;SDS011;8688;54.444;18.444;2024-03-08T00:38:45;47.27;;;18.80;;
17145;SDS011;8688;54.444;18.444;2024-03-08T00:41:13;41.20;;;18.13;;
17145;SDS011;8688;54.444;18.444;2024-03-08T00:43:40;41.93;;;17.10;;
17145;SDS011;8688;54.444;18.444;2024-03-08T00:46:07;39.27;;;16.37;;
17145;SDS011;8688;54.444;18.444;2024-03-08T00:48:37;38.37;;;15.40;;
17145;SDS011;8688;54.444;18.444;2024-03-08T00:51:05;34.67;;;15.83;;
17145;SDS011;8688;54.444;18.444;2024-03-08T00:53:33;33.27;;;14.20;;
17145;SDS011;8688;54.444;18.444;2024-03-08T00:56:01;37.97;;;15.33;;
17145;SDS011;8688;54.444;18.444;2024-03-08T00:58:29;38.03;;;15.10;;
17145;SDS011;8688;54.444;18.444;2024-03-08T01:01:00;32.80;;;14.53;;
17145;SDS011;8688;54.444;18.444;2024-03-08T01:03:27;36.07;;;14.33;;
17145;SDS011;8688;54.444;18.444;2024-03-08T01:05:58;34.93;;;14.33;;
17145;SDS011;8688;54.444;18.444;2024-03-08T01:08:26;35.33;;;13.47;;
17145;SDS011;8688;54.444;18.444;2024-03-08T01:10:54;28.93;;;12.90;;
17145;SDS011;8688;54.444;18.444;2024-03-08T01:13:21;27.60;;;12.50;;
17145;SDS011;8688;54.444;18.444;2024-03-08T01:15:49;34.93;;;13.53;;
17145;SDS011;8688;54.444;18.444;2024-03-08T01:18:16;33.93;;;14.30;;
17145;SDS011;8688;54.444;18.444;2024-03-08T01:20:45;32.00;;;13.40;;
17145;SDS011;8688;54.444;18.444;2024-03-08T01:23:13;26.83;;;12.90;;
17145;SDS011;8688;54.444;18.444;2024-03-08T01:25:41;33.93;;;12.60;;
17145;SDS011;8688;54.444;18.444;2024-03-08T01:28:08;29.03;;;12.33;;
17145;SDS011;8688;54.444;18.444;2024-03-08T01:30:36;26.13;;;11.37;;
17145;SDS011;8688;54.444;18.444;2024-03-08T01:33:04;24.13;;;10.60;;
17145;SDS011;8688;54.444;18.444;2024-03-08T01:35:31;26.77;;;11.40;;
17145;SDS011;8688;54.444;18.444;2024-03-08T01:37:59;24.10;;;10.93;;
17145;SDS011;8688;54.444;18.444;2024-03-08T01:40:28;26.83;;;11.37;;
17145;SDS011;8688;54.444;18.444;2024-03-08T01:42:56;23.93;;;11.83;;
17145;SDS011;8688;54.444;18.444;2024-03-08T01:45:23;29.80;;;12.00;;
17145;SDS011;8688;54.444;18.444;2024-03-08T01:47:51;31.63;;;12.83;;
17145;SDS011;8688;54.444;18.444;2024-03-08T01:50:18;30.63;;;12.73;;
17145;SDS011;8688;54.444;18.444;2024-03-08T01:52:46;29.93;;;12.67;;
17145;SDS011;8688;54.444;18.444;2024-03-08T01:55:13;27.67;;;11.60;;
17145;SDS011;8688;54.444;18.444;2024-03-08T01:57:44;29.13;;;12.23;;
17145;SDS011;8688;54.444;18.444;2024-03-08T02:00:11;22.73;;;10.10;;
17145;SDS011;8688;54.444;18.444;2024-03-08T02:02:41;22.00;;;9.37;;
17145;SDS011;8688;54.444;18.444;2024-03-08T02:05:10;20.97;;;8.83;;
17145;SDS011;8688;54.444;18.444;2024-03-08T02:07:40;19.70;;;9.00;;
17145;SDS011;8688;54.444;18.444;2024-03-08T02:10:09;21.50;;;8.77;;
17145;SDS011;8688;54.444;18.444;2024-03-08T02:12:37;18.13;;;8.23;;
17145;SDS011;8688;54.444;18.444;2024-03-08T02:15:07;19.33;;;8.60;;
17145;SDS011;8688;54.444;18.444;2024-03-08T02:17:35;17.93;;;7.77;;
17145;SDS011;8688;54.444;18.444;2024-03-08T02:20:03;19.10;;;8.53;;
17145;SDS011;8688;54.444;18.444;2024-03-08T02:22:35;21.13;;;8.87;;
17145;SDS011;8688;54.444;18.444;2024-03-08T02:25:03;24.73;;;10.83;;
17145;SDS011;8688;54.444;18.444;2024-03-08T02:27:32;37.60;;;14.03;;
17145;SDS011;8688;54.444;18.444;2024-03-08T02:30:00;39.20;;;14.60;;
17145;SDS011;8688;54.444;18.444;2024-03-08T02:32:27;42.70;;;16.13;;
17145;SDS011;8688;54.444;18.444;2024-03-08T02:34:56;42.37;;;16.77;;
17145;SDS011;8688;54.444;18.444;2024-03-08T02:37:25;42.13;;;17.30;;
17145;SDS011;8688;54.444;18.444;2024-03-08T02:39:56;46.40;;;16.03;;
17145;SDS011;8688;54.444;18.444;2024-03-08T02:42:23;41.53;;;16.93;;
17145;SDS011;8688;54.444;18.444;2024-03-08T02:44:50;40.93;;;17.13;;
17145;SDS011;8688;54.444;18.444;2024-03-08T02:47:19;49.30;;;17.60;;
17145;SDS011;8688;54.444;18.444;2024-03-08T02:49:46;43.87;;;17.17;;
17145;SDS011;8688;54.444;18.444;2024-03-08T02:52:15;42.97;;;16.63;;
17145;SDS011;8688;54.444;18.444;2024-03-08T02:54:42;41.13;;;16.30;;
17145;SDS011;8688;54.444;18.444;2024-03-08T02:57:13;46.03;;;17.90;;
17145;SDS011;8688;54.444;18.444;2024-03-08T02:59:41;41.33;;;16.30;;
17145;SDS011;8688;54.444;18.444;2024-03-08T03:02:08;40.40;;;16.47;;
17145;SDS011;8688;54.444;18.444;2024-03-08T03:04:39;51.40;;;17.60;;
17145;SDS011;8688;54.444;18.444;2024-03-08T03:07:06;43.70;;;18.27;;
17145;SDS011;8688;54.444;18.444;2024-03-08T03:09:34;46.60;;;17.47;;
17145;SDS011;8688;54.444;18.444;2024-03-08T03:12:01;53.27;;;17.23;;
17145;SDS011;8688;54.444;18.444;2024-03-08T03:14:31;53.07;;;17.93;;
17145;SDS011;8688;54.444;18.444;2024-03-08T03:16:59;53.90;;;18.73;;
17145;SDS011;8688;54.444;18.444;2024-03-08T03:19:27;52.20;;;17.77;;
17145;SDS011;8688;54.444;18.444;2024-03-08T03:21:55;58.20;;;18.73;;
17145;SDS011;8688;54.444;18.444;2024-03-08T03:24:23;51.27;;;17.30;;
17145;SDS011;8688;54.444;18.444;2024-03-08T03:26:54;49.43;;;16.87;;
17145;SDS011;8688;54.444;18.444;2024-03-08T03:29:22;51.17;;;18.43;;
17145;SDS011;8688;54.444;18.444;2024-03-08T03:31:52;57.40;;;17.43;;
17145;SDS011;8688;54.444;18.444;2024-03-08T03:34:19;53.50;;;16.87;;
17145;SDS011;8688;54.444;18.444;2024-03-08T03:36:48;44.70;;;17.23;;
17145;SDS011;8688;54.444;18.444;2024-03-08T03:39:15;48.40;;;16.93;;
17145;SDS011;8688;54.444;18.444;2024-03-08T03:41:45;43.13;;;15.60;;
17145;SDS011;8688;54.444;18.444;2024-03-08T03:44:14;42.37;;;14.50;;
17145;SDS011;8688;54.444;18.444;2024-03-08T03:46:41;48.80;;;13.83;;
17145;SDS011;8688;54.444;18.444;2024-03-08T03:49:12;32.23;;;12.37;;
17145;SDS011;8688;54.444;18.444;2024-03-08T03:51:39;35.70;;;13.03;;
17145;SDS011;8688;54.444;18.444;2024-03-08T03:54:06;35.53;;;12.47;;
17145;SDS011;8688;54.444;18.444;2024-03-08T03:56:34;40.80;;;13.20;;
17145;SDS011;8688;54.444;18.444;2024-03-08T03:59:01;43.00;;;13.43;;
17145;SDS011;8688;54.444;18.444;2024-03-08T04:01:29;36.63;;;12.90;;
17145;SDS011;8688;54.444;18.444;2024-03-08T04:03:57;38.17;;;13.17;;
17145;SDS011;8688;54.444;18.444;2024-03-08T04:06:26;40.80;;;14.40;;
17145;SDS011;8688;54.444;18.444;2024-03-08T04:08:53;44.10;;;13.93;;
17145;SDS011;8688;54.444;18.444;2024-03-08T04:11:21;37.83;;;14.20;;
17145;SDS011;8688;54.444;18.444;2024-03-08T04:13:48;31.17;;;12.43;;
17145;SDS011;8688;54.444;18.444;2024-03-08T04:16:16;32.60;;;12.00;;
17145;SDS011;8688;54.444;18.444;2024-03-08T04:18:44;35.30;;;12.10;;
17145;SDS011;8688;54.444;18.444;2024-03-08T04:21:12;32.87;;;11.33;;
17145;SDS011;8688;54.444;18.444;2024-03-08T04:23:41;32.33;;;11.33;;
17145;SDS011;8688;54.444;18.444;2024-03-08T04:26:10;29.93;;;10.13;;
17145;SDS011;8688;54.444;18.444;2024-03-08T04:28:38;34.53;;;12.07;;
17145;SDS011;8688;54.444;18.444;2024-03-08T04:31:06;32.53;;;11.13;;
17145;SDS011;8688;54.444;18.444;2024-03-08T04:33:34;37.27;;;12.70;;
17145;SDS011;8688;54.444;18.444;2024-03-08T04:36:02;44.73;;;12.90;;
17145;SDS011;8688;54.444;18.444;2024-03-08T04:38:30;38.97;;;13.03;;
17145;SDS011;8688;54.444;18.444;2024-03-08T04:40:59;34.87;;;12.93;;
17145;SDS011;8688;54.444;18.444;2024-03-08T04:43:27;36.97;;;13.10;;
17145;SDS011;8688;54.444;18.444;2024-03-08T04:45:55;34.67;;;11.93;;
17145;SDS011;8688;54.444;18.444;2024-03-08T04:48:23;37.83;;;12.27;;
17145;SDS011;8688;54.444;18.444;2024-03-08T04:50:51;39.77;;;13.90;;
17145;SDS011;8688;54.444;18.444;2024-03-08T04:53:20;33.17;;;12.53;;
17145;SDS011;8688;54.444;18.444;2024-03-08T04:55:48;32.03;;;12.13;;
17145;SDS011;8688;54.444;18.444;2024-03-08T04:58:17;32.97;;;11.77;;
17145;SDS011;8688;54.444;18.444;2024-03-08T05:00:46;29.40;;;11.20;;
17145;SDS011;8688;54.444;18.444;2024-03-08T05:03:13;36.17;;;10.87;;
17145;SDS011;8688;54.444;18.444;2024-03-08T05:05:41;29.13;;;11.13;;
17145;SDS011;8688;54.444;18.444;2024-03-08T05:08:09;28.47;;;10.60;;
17145;SDS011;8688;54.444;18.444;2024-03-08T05:10:36;28.03;;;10.63;;
17145;SDS011;8688;54.444;18.444;2024-03-08T05:13:04;28.87;;;10.93;;
17145;SDS011;8688;54.444;18.444;2024-03-08T05:15:33;33.03;;;12.43;;
17145;SDS011;8688;54.444;18.444;2024-03-08T05:18:01;24.07;;;10.73;;
17145;SDS011;8688;54.444;18.444;2024-03-08T05:20:29;29.50;;;10.60;;
17145;SDS011;8688;54.444;18.444;2024-03-08T05:22:57;30.73;;;11.03;;
17145;SDS011;8688;54.444;18.444;2024-03-08T05:25:25;26.57;;;10.70;;
17145;SDS011;8688;54.444;18.444;2024-03-08T05:27:53;27.17;;;10.20;;
17145;SDS011;8688;54.444;18.444;2024-03-08T05:30:21;27.43;;;10.33;;
17145;SDS011;8688;54.444;18.444;2024-03-08T05:32:49;28.03;;;9.53;;
17145;SDS011;8688;54.444;18.444;2024-03-08T05:35:16;24.67;;;10.17;;
17145;SDS011;8688;54.444;18.444;2024-03-08T05:37:43;25.60;;;9.90;;
17145;SDS011;8688;54.444;18.444;2024-03-08T05:40:11;27.77;;;10.90;;
17145;SDS011;8688;54.444;18.444;2024-03-08T05:42:39;40.30;;;15.07;;
17145;SDS011;8688;54.444;18.444;2024-03-08T05:45:07;34.63;;;14.30;;
17145;SDS011;8688;54.444;18.444;2024-03-08T05:47:35;33.83;;;14.53;;
17145;SDS011;8688;54.444;18.444;2024-03-08T05:50:04;48.67;;;18.27;;
17145;SDS011;8688;54.444;18.444;2024-03-08T05:52:35;36.30;;;16.63;;
17145;SDS011;8688;54.444;18.444;2024-03-08T05:55:03;46.30;;;18.70;;
17145;SDS011;8688;54.444;18.444;2024-03-08T05:57:32;47.53;;;19.50;;
17145;SDS011;8688;54.444;18.444;2024-03-08T06:00:03;42.33;;;18.43;;
17145;SDS011;8688;54.444;18.444;2024-03-08T06:02:31;45.97;;;18.90;;
17145;SDS011;8688;54.444;18.444;2024-03-08T06:04:59;44.73;;;18.20;;
17145;SDS011;8688;54.444;18.444;2024-03-08T06:07:29;46.10;;;17.83;;
17145;SDS011;8688;54.444;18.444;2024-03-08T06:09:59;31.00;;;13.00;;
17145;SDS011;8688;54.444;18.444;2024-03-08T06:12:27;24.73;;;10.83;;
17145;SDS011;8688;54.444;18.444;2024-03-08T06:14:58;20.17;;;8.47;;
17145;SDS011;8688;54.444;18.444;2024-03-08T06:17:26;25.37;;;11.00;;
17145;SDS011;8688;54.444;18.444;2024-03-08T06:19:54;30.57;;;11.80;;
17145;SDS011;8688;54.444;18.444;2024-03-08T06:22:22;33.93;;;12.40;;
17145;SDS011;8688;54.444;18.444;2024-03-08T06:24:51;28.67;;;11.53;;
17145;SDS011;8688;54.444;18.444;2024-03-08T06:27:19;28.07;;;11.57;;
17145;SDS011;8688;54.444;18.444;2024-03-08T06:29:46;22.33;;;9.00;;
17145;SDS011;8688;54.444;18.444;2024-03-08T06:32:14;17.90;;;6.93;;
17145;SDS011;8688;54.444;18.444;2024-03-08T06:34:42;10.23;;;4.40;;
17145;SDS011;8688;54.444;18.444;2024-03-08T06:37:09;8.67;;;4.20;;
17145;SDS011;8688;54.444;18.444;2024-03-08T06:39:37;10.00;;;3.97;;
17145;SDS011;8688;54.444;18.444;2024-03-08T06:42:06;6.03;;;3.10;;
17145;SDS011;8688;54.444;18.444;2024-03-08T06:44:35;6.37;;;3.50;;
17145;SDS011;8688;54.444;18.444;2024-03-08T06:47:03;8.03;;;3.57;;
17145;SDS011;8688;54.444;18.444;2024-03-08T06:49:31;8.40;;;3.80;;
17145;SDS011;8688;54.444;18.444;2024-03-08T06:51:59;6.43;;;3.30;;
17145;SDS011;8688;54.444;18.444;2024-03-08T06:54:26;7.83;;;3.60;;
17145;SDS011;8688;54.444;18.444;2024-03-08T06:56:54;7.43;;;3.27;;
17145;SDS011;8688;54.444;18.444;2024-03-08T06:59:23;7.30;;;3.40;;
17145;SDS011;8688;54.444;18.444;2024-03-08T07:01:50;8.30;;;3.90;;
17145;SDS011;8688;54.444;18.444;2024-03-08T07:04:19;9.00;;;4.70;;
17145;SDS011;8688;54.444;18.444;2024-03-08T07:06:47;8.37;;;4.00;;
17145;SDS011;8688;54.444;18.444;2024-03-08T07:09:15;11.00;;;4.63;;
17145;SDS011;8688;54.444;18.444;2024-03-08T07:11:43;12.40;;;5.20;;
17145;SDS011;8688;54.444;18.444;2024-03-08T07:14:12;9.60;;;4.53;;
17145;SDS011;8688;54.444;18.444;2024-03-08T07:16:42;9.37;;;4.63;;
17145;SDS011;8688;54.444;18.444;2024-03-08T07:19:10;7.70;;;4.33;;
17145;SDS011;8688;54.444;18.444;2024-03-08T07:21:37;7.57;;;4.67;;
17145;SDS011;8688;54.444;18.444;2024-03-08T07:24:05;9.90;;;4.90;;
17145;SDS011;8688;54.444;18.444;2024-03-08T07:26:49;8.77;;;5.47;;
17145;SDS011;8688;54.444;18.444;2024-03-08T07:29:17;11.03;;;5.47;;
17145;SDS011;8688;54.444;18.444;2024-03-08T07:31:46;10.60;;;5.30;;
17145;SDS011;8688;54.444;18.444;2024-03-08T07:34:21;11.50;;;6.03;;
17145;SDS011;8688;54.444;18.444;2024-03-08T07:36:49;10.80;;;6.70;;
17145;SDS011;8688;54.444;18.444;2024-03-08T07:39:17;13.47;;;6.67;;
17145;SDS011;8688;54.444;18.444;2024-03-08T07:41:44;13.50;;;7.60;;
17145;SDS011;8688;54.444;18.444;2024-03-08T07:44:13;10.60;;;6.43;;
17145;SDS011;8688;54.444;18.444;2024-03-08T07:46:40;14.60;;;7.70;;
17145;SDS011;8688;54.444;18.444;2024-03-08T07:49:09;19.63;;;8.40;;
17145;SDS011;8688;54.444;18.444;2024-03-08T07:51:37;13.23;;;8.13;;
17145;SDS011;8688;54.444;18.444;2024-03-08T07:54:04;15.20;;;9.10;;
17145;SDS011;8688;54.444;18.444;2024-03-08T07:56:34;16.27;;;9.40;;
17145;SDS011;8688;54.444;18.444;2024-03-08T07:59:02;14.70;;;7.70;;
17145;SDS011;8688;54.444;18.444;2024-03-08T08:01:30;15.13;;;8.13;;
17145;SDS011;8688;54.444;18.444;2024-03-08T08:03:58;11.70;;;6.20;;
17145;SDS011;8688;54.444;18.444;2024-03-08T08:06:28;11.47;;;5.60;;
17145;SDS011;8688;54.444;18.444;2024-03-08T08:08:57;11.27;;;6.70;;
17145;SDS011;8688;54.444;18.444;2024-03-08T08:11:25;14.27;;;6.77;;
17145;SDS011;8688;54.444;18.444;2024-03-08T08:13:54;13.93;;;7.30;;
17145;SDS011;8688;54.444;18.444;2024-03-08T08:16:22;11.93;;;6.53;;
17145;SDS011;8688;54.444;18.444;2024-03-08T08:18:51;11.93;;;6.97;;
17145;SDS011;8688;54.444;18.444;2024-03-08T08:21:18;27.43;;;12.73;;
17145;SDS011;8688;54.444;18.444;2024-03-08T08:23:48;30.60;;;14.07;;
17145;SDS011;8688;54.444;18.444;2024-03-08T08:26:16;21.30;;;9.87;;
17145;SDS011;8688;54.444;18.444;2024-03-08T08:28:43;17.47;;;9.13;;
17145;SDS011;8688;54.444;18.444;2024-03-08T08:31:11;17.27;;;8.73;;
17145;SDS011;8688;54.444;18.444;2024-03-08T08:33:39;18.27;;;8.77;;
17145;SDS011;8688;54.444;18.444;2024-03-08T08:36:07;18.40;;;10.00;;
17145;SDS011;8688;54.444;18.444;2024-03-08T08:38:35;21.20;;;10.43;;
17145;SDS011;8688;54.444;18.444;2024-03-08T08:41:05;22.57;;;11.63;;
17145;SDS011;8688;54.444;18.444;2024-03-08T08:43:33;20.33;;;11.27;;
17145;SDS011;8688;54.444;18.444;2024-03-08T08:46:00;25.80;;;15.33;;
17145;SDS011;8688;54.444;18.444;2024-03-08T08:48:28;25.77;;;12.93;;
17145;SDS011;8688;54.444;18.444;2024-03-08T08:50:56;21.33;;;12.03;;
17145;SDS011;8688;54.444;18.444;2024-03-08T08:53:23;20.90;;;11.20;;
17145;SDS011;8688;54.444;18.444;2024-03-08T08:55:51;27.37;;;14.47;;
17145;SDS011;8688;54.444;18.444;2024-03-08T08:58:20;31.97;;;14.67;;
17145;SDS011;8688;54.444;18.444;2024-03-08T09:00:47;34.40;;;15.33;;
17145;SDS011;8688;54.444;18.444;2024-03-08T09:03:15;34.63;;;16.53;;
17145;SDS011;8688;54.444;18.444;2024-03-08T09:05:42;36.03;;;16.30;;
17145;SDS011;8688;54.444;18.444;2024-03-08T09:08:10;32.60;;;16.57;;
17145;SDS011;8688;54.444;18.444;2024-03-08T09:10:38;31.20;;;15.73;;
17145;SDS011;8688;54.444;18.444;2024-03-08T09:13:05;31.40;;;16.80;;
17145;SDS011;8688;54.444;18.444;2024-03-08T09:15:36;36.53;;;16.90;;
17145;SDS011;8688;54.444;18.444;2024-03-08T09:18:05;40.43;;;16.27;;
17145;SDS011;8688;54.444;18.444;2024-03-08T09:20:34;33.80;;;16.33;;
17145;SDS011;8688;54.444;18.444;2024-03-08T09:23:02;39.23;;;18.53;;
17145;SDS011;8688;54.444;18.444;2024-03-08T09:25:30;37.63;;;17.90;;
17145;SDS011;8688;54.444;18.444;2024-03-08T09:27:58;35.73;;;17.23;;
17145;SDS011;8688;54.444;18.444;2024-03-08T09:30:25;34.60;;;15.80;;
17145;SDS011;8688;54.444;18.444;2024-03-08T09:32:55;33.23;;;16.33;;
17145;SDS011;8688;54.444;18.444;2024-03-08T09:35:22;35.53;;;16.50;;
17145;SDS011;8688;54.444;18.444;2024-03-08T09:37:50;33.70;;;16.33;;
17145;SDS011;8688;54.444;18.444;2024-03-08T09:40:19;35.73;;;16.00;;
17145;SDS011;8688;54.444;18.444;2024-03-08T09:42:48;29.60;;;15.10;;
17145;SDS011;8688;54.444;18.444;2024-03-08T09:45:16;31.97;;;14.87;;
17145;SDS011;8688;54.444;18.444;2024-03-08T09:47:44;34.90;;;15.70;;
17145;SDS011;8688;54.444;18.444;2024-03-08T09:50:15;28.80;;;13.77;;
17145;SDS011;8688;54.444;18.444;2024-03-08T09:52:43;25.93;;;13.37;;
17145;SDS011;8688;54.444;18.444;2024-03-08T09:55:14;21.33;;;11.43;;
17145;SDS011;8688;54.444;18.444;2024-03-08T09:57:47;24.77;;;11.17;;
17145;SDS011;8688;54.444;18.444;2024-03-08T10:00:28;21.37;;;11.40;;
17145;SDS011;8688;54.444;18.444;2024-03-08T10:03:00;22.23;;;11.07;;
17145;SDS011;8688;54.444;18.444;2024-03-08T10:05:29;21.33;;;11.17;;
17145;SDS011;8688;54.444;18.444;2024-03-08T10:07:58;23.80;;;11.40;;
17145;SDS011;8688;54.444;18.444;2024-03-08T10:10:26;25.57;;;11.60;;
17145;SDS011;8688;54.444;18.444;2024-03-08T10:12:53;22.93;;;12.07;;
17145;SDS011;8688;54.444;18.444;2024-03-08T10:15:22;27.63;;;13.50;;
17145;SDS011;8688;54.444;18.444;2024-03-08T10:17:49;29.93;;;13.07;;
17145;SDS011;8688;54.444;18.444;2024-03-08T10:20:18;27.13;;;13.70;;
17145;SDS011;8688;54.444;18.444;2024-03-08T10:22:47;28.53;;;13.87;;
17145;SDS011;8688;54.444;18.444;2024-03-08T10:25:15;27.17;;;12.83;;
17145;SDS011;8688;54.444;18.444;2024-03-08T10:27:43;30.03;;;13.60;;
17145;SDS011;8688;54.444;18.444;2024-03-08T10:30:11;30.53;;;13.77;;
17145;SDS011;8688;54.444;18.444;2024-03-08T10:32:41;32.60;;;13.10;;
17145;SDS011;8688;54.444;18.444;2024-03-08T10:35:09;28.67;;;13.03;;
17145;SDS011;8688;54.444;18.444;2024-03-08T10:37:39;21.10;;;11.03;;
17145;SDS011;8688;54.444;18.444;2024-03-08T10:40:15;18.53;;;8.83;;
17145;SDS011;8688;54.444;18.444;2024-03-08T10:42:47;21.37;;;10.13;;
17145;SDS011;8688;54.444;18.444;2024-03-08T10:45:23;20.20;;;10.90;;
17145;SDS011;8688;54.444;18.444;2024-03-08T10:48:03;29.87;;;13.20;;
17145;SDS011;8688;54.444;18.444;2024-03-08T10:50:36;18.03;;;8.43;;
17145;SDS011;8688;54.444;18.444;2024-03-08T10:53:06;18.73;;;9.03;;
17145;SDS011;8688;54.444;18.444;2024-03-08T10:55:37;14.23;;;7.53;;
17145;SDS011;8688;54.444;18.444;2024-03-08T10:58:07;14.63;;;6.90;;
17145;SDS011;8688;54.444;18.444;2024-03-08T11:00:34;13.17;;;6.50;;
17145;SDS011;8688;54.444;18.444;2024-03-08T11:03:02;15.60;;;6.30;;
17145;SDS011;8688;54.444;18.444;2024-03-08T11:05:36;16.27;;;6.30;;
17145;SDS011;8688;54.444;18.444;2024-03-08T11:08:06;15.13;;;6.20;;
17145;SDS011;8688;54.444;18.444;2024-03-08T11:10:49;11.33;;;6.77;;
17145;SDS011;8688;54.444;18.444;2024-03-08T11:13:33;11.57;;;6.10;;
17145;SDS011;8688;54.444;18.444;2024-03-08T11:16:01;16.17;;;6.57;;
17145;SDS011;8688;54.444;18.444;2024-03-08T11:18:32;12.33;;;6.07;;
17145;SDS011;8688;54.444;18.444;2024-03-08T11:21:02;12.33;;;7.50;;
17145;SDS011;8688;54.444;18.444;2024-03-08T11:23:32;14.47;;;7.67;;
17145;SDS011;8688;54.444;18.444;2024-03-08T11:26:01;13.90;;;6.80;;
17145;SDS011;8688;54.444;18.444;2024-03-08T11:28:32;16.60;;;7.47;;
17145;SDS011;8688;54.444;18.444;2024-03-08T11:33:50;13.13;;;5.50;;
17145;SDS011;8688;54.444;18.444;2024-03-08T11:36:21;15.03;;;5.70;;
17145;SDS011;8688;54.444;18.444;2024-03-08T11:38:50;10.30;;;5.50;;
17145;SDS011;8688;54.444;18.444;2024-03-08T11:41:22;12.03;;;6.00;;
17145;SDS011;8688;54.444;18.444;2024-03-08T11:44:01;11.97;;;5.53;;
17145;SDS011;8688;54.444;18.444;2024-03-08T11:46:32;10.87;;;5.43;;
17145;SDS011;8688;54.444;18.444;2024-03-08T11:49:00;13.27;;;6.80;;
17145;SDS011;8688;54.444;18.444;2024-03-08T11:51:28;10.70;;;5.63;;
17145;SDS011;8688;54.444;18.444;2024-03-08T11:53:56;12.57;;;6.00;;
17145;SDS011;8688;54.444;18.444;2024-03-08T11:56:25;13.40;;;5.20;;
17145;SDS011;8688;54.444;18.444;2024-03-08T11:58:54;11.63;;;6.00;;
17145;SDS011;8688;54.444;18.444;2024-03-08T12:01:22;12.00;;;6.03;;
17145;SDS011;8688;54.444;18.444;2024-03-08T12:03:52;14.10;;;6.00;;
17145;SDS011;8688;54.444;18.444;2024-03-08T12:06:20;13.03;;;6.13;;
17145;SDS011;8688;54.444;18.444;2024-03-08T12:08:48;14.17;;;6.37;;
17145;SDS011;8688;54.444;18.444;2024-03-08T12:11:16;11.03;;;6.17;;
17145;SDS011;8688;54.444;18.444;2024-03-08T12:13:49;11.97;;;6.93;;
17145;SDS011;8688;54.444;18.444;2024-03-08T12:16:17;12.70;;;6.67;;
17145;SDS011;8688;54.444;18.444;2024-03-08T12:18:46;14.97;;;6.77;;
17145;SDS011;8688;54.444;18.444;2024-03-08T12:21:15;12.17;;;6.27;;
17145;SDS011;8688;54.444;18.444;2024-03-08T12:23:46;11.87;;;6.83;;
17145;SDS011;8688;54.444;18.444;2024-03-08T12:26:16;12.90;;;7.17;;
17145;SDS011;8688;54.444;18.444;2024-03-08T12:28:45;14.47;;;7.70;;
17145;SDS011;8688;54.444;18.444;2024-03-08T12:31:14;14.67;;;7.80;;
17145;SDS011;8688;54.444;18.444;2024-03-08T12:33:49;11.93;;;6.93;;
17145;SDS011;8688;54.444;18.444;2024-03-08T12:36:16;16.47;;;7.43;;
17145;SDS011;8688;54.444;18.444;2024-03-08T12:38:45;13.47;;;6.93;;
17145;SDS011;8688;54.444;18.444;2024-03-08T12:41:13;16.30;;;7.57;;
17145;SDS011;8688;54.444;18.444;2024-03-08T12:43:42;11.97;;;6.60;;
17145;SDS011;8688;54.444;18.444;2024-03-08T12:46:15;14.33;;;7.63;;
17145;SDS011;8688;54.444;18.444;2024-03-08T12:48:44;12.70;;;7.30;;
17145;SDS011;8688;54.444;18.444;2024-03-08T12:51:12;14.07;;;7.13;;
17145;SDS011;8688;54.444;18.444;2024-03-08T12:53:41;13.63;;;7.57;;
17145;SDS011;8688;54.444;18.444;2024-03-08T12:56:09;14.53;;;7.60;;
17145;SDS011;8688;54.444;18.444;2024-03-08T12:58:37;16.83;;;8.00;;
17145;SDS011;8688;54.444;18.444;2024-03-08T13:01:06;13.43;;;7.37;;
17145;SDS011;8688;54.444;18.444;2024-03-08T13:03:35;11.67;;;6.90;;
17145;SDS011;8688;54.444;18.444;2024-03-08T13:06:03;14.40;;;6.73;;
17145;SDS011;8688;54.444;18.444;2024-03-08T13:08:33;15.33;;;7.40;;
17145;SDS011;8688;54.444;18.444;2024-03-08T13:11:04;12.97;;;6.90;;
17145;SDS011;8688;54.444;18.444;2024-03-08T13:13:32;13.13;;;7.63;;
17145;SDS011;8688;54.444;18.444;2024-03-08T13:16:00;13.63;;;7.70;;
17145;SDS011;8688;54.444;18.444;2024-03-08T13:18:28;12.30;;;7.03;;
17145;SDS011;8688;54.444;18.444;2024-03-08T13:20:57;11.43;;;7.43;;
17145;SDS011;8688;54.444;18.444;2024-03-08T13:23:30;11.07;;;6.83;;
17145;SDS011;8688;54.444;18.444;2024-03-08T13:25:57;16.47;;;7.97;;
17145;SDS011;8688;54.444;18.444;2024-03-08T13:28:25;11.70;;;6.13;;
17145;SDS011;8688;54.444;18.444;2024-03-08T13:31:01;11.93;;;7.23;;
17145;SDS011;8688;54.444;18.444;2024-03-08T13:33:31;13.80;;;7.70;;
17145;SDS011;8688;54.444;18.444;2024-03-08T13:36:03;10.97;;;7.40;;
17145;SDS011;8688;54.444;18.444;2024-03-08T13:38:40;14.83;;;7.57;;
17145;SDS011;8688;54.444;18.444;2024-03-08T13:41:08;11.27;;;6.80;;
17145;SDS011;8688;54.444;18.444;2024-03-08T13:43:37;11.50;;;6.87;;
17145;SDS011;8688;54.444;18.444;2024-03-08T13:46:05;14.63;;;7.73;;
17145;SDS011;8688;54.444;18.444;2024-03-08T13:48:33;13.93;;;7.20;;
17145;SDS011;8688;54.444;18.444;2024-03-08T13:51:04;14.93;;;6.90;;
17145;SDS011;8688;54.444;18.444;2024-03-08T13:53:32;13.07;;;6.80;;
17145;SDS011;8688;54.444;18.444;2024-03-08T13:56:00;12.40;;;6.50;;
17145;SDS011;8688;54.444;18.444;2024-03-08T13:58:29;10.93;;;6.33;;
17145;SDS011;8688;54.444;18.444;2024-03-08T14:00:57;14.80;;;6.27;;
17145;SDS011;8688;54.444;18.444;2024-03-08T14:03:25;11.33;;;5.90;;
17145;SDS011;8688;54.444;18.444;2024-03-08T14:05:53;19.53;;;6.03;;
17145;SDS011;8688;54.444;18.444;2024-03-08T14:08:24;11.73;;;5.90;;
17145;SDS011;8688;54.444;18.444;2024-03-08T14:10:52;9.73;;;5.40;;
17145;SDS011;8688;54.444;18.444;2024-03-08T14:13:20;7.53;;;4.97;;
17145;SDS011;8688;54.444;18.444;2024-03-08T14:15:49;9.53;;;4.80;;
17145;SDS011;8688;54.444;18.444;2024-03-08T14:18:17;10.17;;;5.27;;
17145;SDS011;8688;54.444;18.444;2024-03-08T14:20:44;7.10;;;4.30;;
17145;SDS011;8688;54.444;18.444;2024-03-08T14:23:12;8.57;;;4.40;;
17145;SDS011;8688;54.444;18.444;2024-03-08T14:25:41;10.90;;;4.50;;
17145;SDS011;8688;54.444;18.444;2024-03-08T14:28:09;8.37;;;4.63;;
17145;SDS011;8688;54.444;18.444;2024-03-08T14:30:37;6.57;;;4.20;;
17145;SDS011;8688;54.444;18.444;2024-03-08T14:33:06;11.40;;;4.60;;
17145;SDS011;8688;54.444;18.444;2024-03-08T14:35:34;8.43;;;4.23;;
17145;SDS011;8688;54.444;18.444;2024-03-08T14:38:02;7.93;;;4.17;;
17145;SDS011;8688;54.444;18.444;2024-03-08T14:40:33;7.00;;;4.53;;